sensor_id;sensor_type;location;lat;lon;timestamp;P1;durP1;ratioP1;P2;durP2;ratioP2
4424;SDS011;2225;53.568;13.266;2023-07-29T00:01:37;11.03;;;5.50;;
4424;SDS011;2225;53.568;13.266;2023-07-29T00:04:07;9.40;;;4.73;;
4424;SDS011;2225;53.568;13.266;2023-07-29T00:06:35;9.83;;;4.30;;
4424;SDS011;2225;53.568;13.266;2023-07-29T00:09:03;11.13;;;4.40;;
4424;SDS011;2225;53.568;13.266;2023-07-29T00:11:30;11.60;;;4.80;;
4424;SDS011;2225;53.568;13.266;2023-07-29T00:13:59;12.17;;;5.00;;
4424;SDS011;2225;53.568;13.266;2023-07-29T00:16:27;10.43;;;4.87;;
4424;SDS011;2225;53.568;13.266;2023-07-29T00:18:54;11.43;;;4.93;;
4424;SDS011;2225;53.568;13.266;2023-07-29T00:21:21;12.97;;;5.50;;
4424;SDS011;2225;53.568;13.266;2023-07-29T00:23:48;13.47;;;5.20;;
4424;SDS011;2225;53.568;13.266;2023-07-29T00:26:15;12.60;;;5.07;;
4424;SDS011;2225;53.568;13.266;2023-07-29T00:28:42;9.70;;;4.80;;
4424;SDS011;2225;53.568;13.266;2023-07-29T00:31:09;11.07;;;5.00;;
4424;SDS011;2225;53.568;13.266;2023-07-29T00:33:37;10.00;;;4.67;;
4424;SDS011;2225;53.568;13.266;2023-07-29T00:36:04;10.53;;;4.23;;
4424;SDS011;2225;53.568;13.266;2023-07-29T00:38:31;9.87;;;4.23;;
4424;SDS011;2225;53.568;13.266;2023-07-29T00:40:58;10.47;;;4.57;;
4424;SDS011;2225;53.568;13.266;2023-07-29T00:43:29;11.57;;;4.73;;
4424;SDS011;2225;53.568;13.266;2023-07-29T00:45:56;8.17;;;3.63;;
4424;SDS011;2225;53.568;13.266;2023-07-29T00:48:24;8.50;;;3.90;;
4424;SDS011;2225;53.568;13.266;2023-07-29T00:50:52;10.50;;;4.70;;
4424;SDS011;2225;53.568;13.266;2023-07-29T00:53:20;9.30;;;4.50;;
4424;SDS011;2225;53.568;13.266;2023-07-29T00:55:49;10.67;;;4.37;;
4424;SDS011;2225;53.568;13.266;2023-07-29T00:58:16;14.90;;;3.90;;
4424;SDS011;2225;53.568;13.266;2023-07-29T01:00:43;11.33;;;4.37;;
4424;SDS011;2225;53.568;13.266;2023-07-29T01:03:10;9.77;;;3.93;;
4424;SDS011;2225;53.568;13.266;2023-07-29T01:05:44;25.60;;;4.40;;
4424;SDS011;2225;53.568;13.266;2023-07-29T01:08:38;13.10;;;4.57;;
4424;SDS011;2225;53.568;13.266;2023-07-29T01:14:11;9.33;;;4.57;;
4424;SDS011;2225;53.568;13.266;2023-07-29T01:17:13;10.70;;;4.70;;
4424;SDS011;2225;53.568;13.266;2023-07-29T01:20:02;11.33;;;5.90;;
4424;SDS011;2225;53.568;13.266;2023-07-29T01:22:34;10.83;;;5.07;;
4424;SDS011;2225;53.568;13.266;2023-07-29T01:25:03;10.83;;;4.30;;
4424;SDS011;2225;53.568;13.266;2023-07-29T01:27:30;10.20;;;4.17;;
4424;SDS011;2225;53.568;13.266;2023-07-29T01:29:58;9.60;;;4.63;;
4424;SDS011;2225;53.568;13.266;2023-07-29T01:33:14;9.10;;;4.13;;
4424;SDS011;2225;53.568;13.266;2023-07-29T01:35:23;10.10;;;4.50;;
4424;SDS011;2225;53.568;13.266;2023-07-29T01:38:24;8.67;;;4.37;;
4424;SDS011;2225;53.568;13.266;2023-07-29T01:41:01;8.83;;;4.70;;
4424;SDS011;2225;53.568;13.266;2023-07-29T01:43:29;9.90;;;4.20;;
4424;SDS011;2225;53.568;13.266;2023-07-29T01:45:56;11.73;;;4.30;;
4424;SDS011;2225;53.568;13.266;2023-07-29T01:48:23;9.87;;;4.50;;
4424;SDS011;2225;53.568;13.266;2023-07-29T01:50:52;12.40;;;4.97;;
4424;SDS011;2225;53.568;13.266;2023-07-29T01:53:19;10.77;;;4.93;;
4424;SDS011;2225;53.568;13.266;2023-07-29T01:55:46;8.40;;;3.93;;
4424;SDS011;2225;53.568;13.266;2023-07-29T01:58:13;9.83;;;4.63;;
4424;SDS011;2225;53.568;13.266;2023-07-29T02:00:45;10.00;;;5.40;;
4424;SDS011;2225;53.568;13.266;2023-07-29T02:03:12;9.87;;;4.67;;
4424;SDS011;2225;53.568;13.266;2023-07-29T02:05:39;8.30;;;4.17;;
4424;SDS011;2225;53.568;13.266;2023-07-29T02:08:06;14.30;;;4.70;;
4424;SDS011;2225;53.568;13.266;2023-07-29T02:10:33;10.70;;;5.03;;
4424;SDS011;2225;53.568;13.266;2023-07-29T02:13:00;9.20;;;4.30;;
4424;SDS011;2225;53.568;13.266;2023-07-29T02:15:27;8.97;;;4.87;;
4424;SDS011;2225;53.568;13.266;2023-07-29T02:17:54;10.20;;;4.73;;
4424;SDS011;2225;53.568;13.266;2023-07-29T02:20:21;9.10;;;4.87;;
4424;SDS011;2225;53.568;13.266;2023-07-29T02:22:49;8.53;;;4.00;;
4424;SDS011;2225;53.568;13.266;2023-07-29T02:25:16;9.17;;;4.30;;
4424;SDS011;2225;53.568;13.266;2023-07-29T02:27:44;11.83;;;4.90;;
4424;SDS011;2225;53.568;13.266;2023-07-29T02:30:11;11.60;;;5.00;;
4424;SDS011;2225;53.568;13.266;2023-07-29T02:32:38;11.00;;;4.00;;
4424;SDS011;2225;53.568;13.266;2023-07-29T02:35:06;11.73;;;4.77;;
4424;SDS011;2225;53.568;13.266;2023-07-29T02:37:33;26.23;;;4.50;;
4424;SDS011;2225;53.568;13.266;2023-07-29T02:40:00;8.57;;;3.90;;
4424;SDS011;2225;53.568;13.266;2023-07-29T02:42:28;9.23;;;4.30;;
4424;SDS011;2225;53.568;13.266;2023-07-29T02:44:55;8.70;;;4.00;;
4424;SDS011;2225;53.568;13.266;2023-07-29T02:47:22;9.60;;;4.13;;
4424;SDS011;2225;53.568;13.266;2023-07-29T02:49:49;10.87;;;4.73;;
4424;SDS011;2225;53.568;13.266;2023-07-29T02:52:16;8.77;;;4.23;;
4424;SDS011;2225;53.568;13.266;2023-07-29T02:54:43;10.13;;;3.70;;
4424;SDS011;2225;53.568;13.266;2023-07-29T02:57:10;9.63;;;3.50;;
4424;SDS011;2225;53.568;13.266;2023-07-29T02:59:37;10.90;;;4.20;;
4424;SDS011;2225;53.568;13.266;2023-07-29T03:02:04;8.47;;;4.47;;
4424;SDS011;2225;53.568;13.266;2023-07-29T03:04:31;12.00;;;4.17;;
4424;SDS011;2225;53.568;13.266;2023-07-29T03:06:59;12.63;;;3.50;;
4424;SDS011;2225;53.568;13.266;2023-07-29T03:09:27;8.40;;;3.73;;
4424;SDS011;2225;53.568;13.266;2023-07-29T03:11:54;9.10;;;4.07;;
4424;SDS011;2225;53.568;13.266;2023-07-29T03:14:21;8.97;;;3.60;;
4424;SDS011;2225;53.568;13.266;2023-07-29T03:16:48;8.10;;;4.20;;
4424;SDS011;2225;53.568;13.266;2023-07-29T03:19:15;9.37;;;4.33;;
4424;SDS011;2225;53.568;13.266;2023-07-29T03:21:42;8.10;;;3.73;;
4424;SDS011;2225;53.568;13.266;2023-07-29T03:24:09;7.90;;;3.70;;
4424;SDS011;2225;53.568;13.266;2023-07-29T03:26:36;7.80;;;3.80;;
4424;SDS011;2225;53.568;13.266;2023-07-29T03:29:04;9.70;;;4.43;;
4424;SDS011;2225;53.568;13.266;2023-07-29T03:31:31;8.23;;;4.10;;
4424;SDS011;2225;53.568;13.266;2023-07-29T03:33:58;7.90;;;3.80;;
4424;SDS011;2225;53.568;13.266;2023-07-29T03:36:25;9.07;;;4.20;;
4424;SDS011;2225;53.568;13.266;2023-07-29T03:38:52;10.13;;;3.80;;
4424;SDS011;2225;53.568;13.266;2023-07-29T03:41:19;8.23;;;4.00;;
4424;SDS011;2225;53.568;13.266;2023-07-29T03:43:46;13.30;;;4.23;;
4424;SDS011;2225;53.568;13.266;2023-07-29T03:46:13;8.17;;;4.17;;
4424;SDS011;2225;53.568;13.266;2023-07-29T03:48:44;11.20;;;4.10;;
4424;SDS011;2225;53.568;13.266;2023-07-29T03:51:11;9.00;;;4.63;;
4424;SDS011;2225;53.568;13.266;2023-07-29T03:53:38;9.93;;;4.53;;
4424;SDS011;2225;53.568;13.266;2023-07-29T03:56:05;11.43;;;5.73;;
4424;SDS011;2225;53.568;13.266;2023-07-29T03:58:32;11.60;;;6.07;;
4424;SDS011;2225;53.568;13.266;2023-07-29T04:00:59;15.73;;;6.27;;
4424;SDS011;2225;53.568;13.266;2023-07-29T04:03:26;11.57;;;7.17;;
4424;SDS011;2225;53.568;13.266;2023-07-29T04:05:54;10.13;;;5.93;;
4424;SDS011;2225;53.568;13.266;2023-07-29T04:08:21;13.60;;;7.37;;
4424;SDS011;2225;53.568;13.266;2023-07-29T04:10:48;11.70;;;6.67;;
4424;SDS011;2225;53.568;13.266;2023-07-29T04:13:16;10.27;;;6.53;;
4424;SDS011;2225;53.568;13.266;2023-07-29T04:15:43;14.60;;;6.90;;
4424;SDS011;2225;53.568;13.266;2023-07-29T04:18:11;12.57;;;6.60;;
4424;SDS011;2225;53.568;13.266;2023-07-29T04:20:38;19.53;;;7.53;;
4424;SDS011;2225;53.568;13.266;2023-07-29T04:23:05;11.40;;;6.10;;
4424;SDS011;2225;53.568;13.266;2023-07-29T04:25:32;11.40;;;7.23;;
4424;SDS011;2225;53.568;13.266;2023-07-29T04:27:59;18.73;;;7.57;;
4424;SDS011;2225;53.568;13.266;2023-07-29T04:30:26;12.13;;;6.40;;
4424;SDS011;2225;53.568;13.266;2023-07-29T04:32:53;15.77;;;6.60;;
4424;SDS011;2225;53.568;13.266;2023-07-29T04:35:20;11.60;;;7.00;;
4424;SDS011;2225;53.568;13.266;2023-07-29T04:37:48;19.17;;;7.20;;
4424;SDS011;2225;53.568;13.266;2023-07-29T04:40:15;10.70;;;6.23;;
4424;SDS011;2225;53.568;13.266;2023-07-29T04:42:42;12.07;;;6.70;;
4424;SDS011;2225;53.568;13.266;2023-07-29T04:45:09;16.13;;;6.77;;
4424;SDS011;2225;53.568;13.266;2023-07-29T04:47:36;13.63;;;6.30;;
4424;SDS011;2225;53.568;13.266;2023-07-29T04:50:03;10.67;;;5.93;;
4424;SDS011;2225;53.568;13.266;2023-07-29T04:52:31;13.40;;;6.50;;
4424;SDS011;2225;53.568;13.266;2023-07-29T04:54:58;11.93;;;6.80;;
4424;SDS011;2225;53.568;13.266;2023-07-29T04:57:25;11.00;;;5.67;;
4424;SDS011;2225;53.568;13.266;2023-07-29T04:59:54;11.97;;;6.53;;
4424;SDS011;2225;53.568;13.266;2023-07-29T05:02:21;12.03;;;5.50;;
4424;SDS011;2225;53.568;13.266;2023-07-29T05:04:48;11.13;;;6.73;;
4424;SDS011;2225;53.568;13.266;2023-07-29T05:07:15;9.33;;;5.47;;
4424;SDS011;2225;53.568;13.266;2023-07-29T05:09:42;12.07;;;6.73;;
4424;SDS011;2225;53.568;13.266;2023-07-29T05:12:09;10.20;;;5.50;;
4424;SDS011;2225;53.568;13.266;2023-07-29T05:14:36;12.43;;;5.30;;
4424;SDS011;2225;53.568;13.266;2023-07-29T05:17:03;12.07;;;5.97;;
4424;SDS011;2225;53.568;13.266;2023-07-29T05:19:31;11.60;;;5.33;;
4424;SDS011;2225;53.568;13.266;2023-07-29T05:21:57;17.27;;;6.10;;
4424;SDS011;2225;53.568;13.266;2023-07-29T05:24:24;8.77;;;5.23;;
4424;SDS011;2225;53.568;13.266;2023-07-29T05:26:51;14.27;;;5.30;;
4424;SDS011;2225;53.568;13.266;2023-07-29T05:29:18;10.77;;;5.20;;
4424;SDS011;2225;53.568;13.266;2023-07-29T05:31:45;10.60;;;5.03;;
4424;SDS011;2225;53.568;13.266;2023-07-29T05:34:12;10.77;;;5.43;;
4424;SDS011;2225;53.568;13.266;2023-07-29T05:36:40;11.37;;;5.33;;
4424;SDS011;2225;53.568;13.266;2023-07-29T05:39:07;15.90;;;4.80;;
4424;SDS011;2225;53.568;13.266;2023-07-29T05:41:34;9.17;;;5.47;;
4424;SDS011;2225;53.568;13.266;2023-07-29T05:44:01;8.83;;;4.37;;
4424;SDS011;2225;53.568;13.266;2023-07-29T05:46:28;9.93;;;4.90;;
4424;SDS011;2225;53.568;13.266;2023-07-29T05:48:55;9.60;;;4.87;;
4424;SDS011;2225;53.568;13.266;2023-07-29T05:51:22;9.90;;;4.17;;
4424;SDS011;2225;53.568;13.266;2023-07-29T05:53:49;9.67;;;4.43;;
4424;SDS011;2225;53.568;13.266;2023-07-29T05:56:16;8.90;;;4.10;;
4424;SDS011;2225;53.568;13.266;2023-07-29T05:58:43;10.20;;;4.70;;
4424;SDS011;2225;53.568;13.266;2023-07-29T06:01:10;7.47;;;3.73;;
4424;SDS011;2225;53.568;13.266;2023-07-29T06:03:38;8.70;;;4.00;;
4424;SDS011;2225;53.568;13.266;2023-07-29T06:06:05;8.03;;;3.90;;
4424;SDS011;2225;53.568;13.266;2023-07-29T06:08:32;12.03;;;3.53;;
4424;SDS011;2225;53.568;13.266;2023-07-29T06:11:00;7.70;;;3.90;;
4424;SDS011;2225;53.568;13.266;2023-07-29T06:13:27;12.40;;;3.40;;
4424;SDS011;2225;53.568;13.266;2023-07-29T06:15:55;7.40;;;3.27;;
4424;SDS011;2225;53.568;13.266;2023-07-29T06:18:22;7.40;;;3.40;;
4424;SDS011;2225;53.568;13.266;2023-07-29T06:20:49;7.07;;;3.10;;
4424;SDS011;2225;53.568;13.266;2023-07-29T06:23:16;11.87;;;4.10;;
4424;SDS011;2225;53.568;13.266;2023-07-29T06:25:44;8.90;;;3.13;;
4424;SDS011;2225;53.568;13.266;2023-07-29T06:28:11;7.50;;;3.20;;
4424;SDS011;2225;53.568;13.266;2023-07-29T06:30:38;6.60;;;2.80;;
4424;SDS011;2225;53.568;13.266;2023-07-29T06:33:05;7.53;;;3.03;;
4424;SDS011;2225;53.568;13.266;2023-07-29T06:35:32;7.40;;;3.40;;
4424;SDS011;2225;53.568;13.266;2023-07-29T06:37:59;9.07;;;2.40;;
4424;SDS011;2225;53.568;13.266;2023-07-29T06:40:26;5.77;;;2.17;;
4424;SDS011;2225;53.568;13.266;2023-07-29T06:42:53;5.70;;;1.97;;
4424;SDS011;2225;53.568;13.266;2023-07-29T06:45:19;6.00;;;2.30;;
4424;SDS011;2225;53.568;13.266;2023-07-29T06:47:46;6.20;;;2.30;;
4424;SDS011;2225;53.568;13.266;2023-07-29T06:50:14;6.70;;;2.17;;
4424;SDS011;2225;53.568;13.266;2023-07-29T06:52:41;6.00;;;2.50;;
4424;SDS011;2225;53.568;13.266;2023-07-29T06:55:07;6.00;;;2.00;;
4424;SDS011;2225;53.568;13.266;2023-07-29T06:57:35;6.83;;;1.93;;
4424;SDS011;2225;53.568;13.266;2023-07-29T07:00:02;6.00;;;2.10;;
4424;SDS011;2225;53.568;13.266;2023-07-29T07:02:29;7.40;;;2.27;;
4424;SDS011;2225;53.568;13.266;2023-07-29T07:04:56;6.20;;;2.30;;
4424;SDS011;2225;53.568;13.266;2023-07-29T07:07:23;6.63;;;2.70;;
4424;SDS011;2225;53.568;13.266;2023-07-29T07:09:50;6.47;;;2.37;;
4424;SDS011;2225;53.568;13.266;2023-07-29T07:12:17;6.23;;;2.30;;
4424;SDS011;2225;53.568;13.266;2023-07-29T07:14:44;6.30;;;2.00;;
4424;SDS011;2225;53.568;13.266;2023-07-29T07:17:11;8.10;;;2.23;;
4424;SDS011;2225;53.568;13.266;2023-07-29T07:19:39;6.27;;;2.93;;
4424;SDS011;2225;53.568;13.266;2023-07-29T07:22:06;7.17;;;2.63;;
4424;SDS011;2225;53.568;13.266;2023-07-29T07:24:33;8.80;;;2.93;;
4424;SDS011;2225;53.568;13.266;2023-07-29T07:27:00;7.73;;;2.40;;
4424;SDS011;2225;53.568;13.266;2023-07-29T07:29:27;10.83;;;2.73;;
4424;SDS011;2225;53.568;13.266;2023-07-29T07:31:54;6.60;;;2.97;;
4424;SDS011;2225;53.568;13.266;2023-07-29T07:34:21;7.10;;;3.10;;
4424;SDS011;2225;53.568;13.266;2023-07-29T07:36:48;6.30;;;2.60;;
4424;SDS011;2225;53.568;13.266;2023-07-29T07:39:15;7.43;;;3.03;;
4424;SDS011;2225;53.568;13.266;2023-07-29T07:41:42;6.37;;;2.20;;
4424;SDS011;2225;53.568;13.266;2023-07-29T07:44:09;5.70;;;2.37;;
4424;SDS011;2225;53.568;13.266;2023-07-29T07:46:38;6.83;;;2.57;;
4424;SDS011;2225;53.568;13.266;2023-07-29T07:49:06;7.80;;;2.60;;
4424;SDS011;2225;53.568;13.266;2023-07-29T07:51:33;8.83;;;2.17;;
4424;SDS011;2225;53.568;13.266;2023-07-29T07:54:00;5.70;;;2.07;;
4424;SDS011;2225;53.568;13.266;2023-07-29T07:56:27;6.13;;;2.10;;
4424;SDS011;2225;53.568;13.266;2023-07-29T07:58:54;5.40;;;2.20;;
4424;SDS011;2225;53.568;13.266;2023-07-29T08:01:21;8.17;;;2.20;;
4424;SDS011;2225;53.568;13.266;2023-07-29T08:03:48;10.77;;;3.07;;
4424;SDS011;2225;53.568;13.266;2023-07-29T08:06:15;7.60;;;3.30;;
4424;SDS011;2225;53.568;13.266;2023-07-29T08:08:42;5.37;;;2.40;;
4424;SDS011;2225;53.568;13.266;2023-07-29T08:11:09;7.10;;;2.90;;
4424;SDS011;2225;53.568;13.266;2023-07-29T08:13:36;8.40;;;3.17;;
4424;SDS011;2225;53.568;13.266;2023-07-29T08:16:03;6.40;;;3.00;;
4424;SDS011;2225;53.568;13.266;2023-07-29T08:18:30;7.70;;;3.30;;
4424;SDS011;2225;53.568;13.266;2023-07-29T08:20:58;8.83;;;3.30;;
4424;SDS011;2225;53.568;13.266;2023-07-29T08:23:31;7.63;;;3.40;;
4424;SDS011;2225;53.568;13.266;2023-07-29T08:26:02;7.63;;;3.50;;
4424;SDS011;2225;53.568;13.266;2023-07-29T08:28:34;6.80;;;3.73;;
4424;SDS011;2225;53.568;13.266;2023-07-29T08:31:03;8.40;;;4.07;;
4424;SDS011;2225;53.568;13.266;2023-07-29T08:33:31;6.60;;;3.50;;
4424;SDS011;2225;53.568;13.266;2023-07-29T08:36:02;9.67;;;3.70;;
4424;SDS011;2225;53.568;13.266;2023-07-29T08:38:29;8.63;;;3.87;;
4424;SDS011;2225;53.568;13.266;2023-07-29T08:43:32;6.27;;;3.27;;
4424;SDS011;2225;53.568;13.266;2023-07-29T08:46:01;7.13;;;3.93;;
4424;SDS011;2225;53.568;13.266;2023-07-29T08:48:32;6.57;;;3.70;;
4424;SDS011;2225;53.568;13.266;2023-07-29T08:51:06;7.23;;;4.10;;
4424;SDS011;2225;53.568;13.266;2023-07-29T08:53:36;6.57;;;3.70;;
4424;SDS011;2225;53.568;13.266;2023-07-29T08:56:04;13.50;;;4.60;;
4424;SDS011;2225;53.568;13.266;2023-07-29T08:58:32;7.07;;;3.70;;
4424;SDS011;2225;53.568;13.266;2023-07-29T09:00:59;18.50;;;4.20;;
4424;SDS011;2225;53.568;13.266;2023-07-29T09:03:27;6.57;;;3.33;;
4424;SDS011;2225;53.568;13.266;2023-07-29T09:05:54;7.33;;;3.90;;
4424;SDS011;2225;53.568;13.266;2023-07-29T09:08:24;6.40;;;3.70;;
4424;SDS011;2225;53.568;13.266;2023-07-29T09:10:53;8.17;;;4.03;;
4424;SDS011;2225;53.568;13.266;2023-07-29T09:13:21;6.80;;;3.70;;
4424;SDS011;2225;53.568;13.266;2023-07-29T09:15:48;6.60;;;4.10;;
4424;SDS011;2225;53.568;13.266;2023-07-29T09:18:16;8.27;;;4.13;;
4424;SDS011;2225;53.568;13.266;2023-07-29T09:20:47;8.40;;;3.63;;
4424;SDS011;2225;53.568;13.266;2023-07-29T09:23:15;8.90;;;3.93;;
4424;SDS011;2225;53.568;13.266;2023-07-29T09:25:42;10.50;;;5.33;;
4424;SDS011;2225;53.568;13.266;2023-07-29T09:30:38;9.20;;;4.73;;
4424;SDS011;2225;53.568;13.266;2023-07-29T09:33:06;9.23;;;4.73;;
4424;SDS011;2225;53.568;13.266;2023-07-29T09:35:34;9.20;;;5.10;;
4424;SDS011;2225;53.568;13.266;2023-07-29T09:38:04;11.77;;;5.40;;
4424;SDS011;2225;53.568;13.266;2023-07-29T09:40:38;13.73;;;6.60;;
4424;SDS011;2225;53.568;13.266;2023-07-29T09:43:07;16.03;;;6.63;;
4424;SDS011;2225;53.568;13.266;2023-07-29T09:45:36;9.90;;;5.77;;
4424;SDS011;2225;53.568;13.266;2023-07-29T09:48:04;22.33;;;6.93;;
4424;SDS011;2225;53.568;13.266;2023-07-29T09:50:35;11.90;;;6.30;;
4424;SDS011;2225;53.568;13.266;2023-07-29T09:53:03;17.47;;;5.27;;
4424;SDS011;2225;53.568;13.266;2023-07-29T09:55:32;15.40;;;5.70;;
4424;SDS011;2225;53.568;13.266;2023-07-29T09:58:00;14.30;;;5.10;;
4424;SDS011;2225;53.568;13.266;2023-07-29T10:00:30;14.17;;;6.30;;
4424;SDS011;2225;53.568;13.266;2023-07-29T10:02:58;16.33;;;5.20;;
4424;SDS011;2225;53.568;13.266;2023-07-29T10:05:26;12.17;;;5.87;;
4424;SDS011;2225;53.568;13.266;2023-07-29T10:07:55;11.50;;;5.73;;
4424;SDS011;2225;53.568;13.266;2023-07-29T10:10:23;10.70;;;5.80;;
4424;SDS011;2225;53.568;13.266;2023-07-29T10:12:50;10.20;;;6.50;;
4424;SDS011;2225;53.568;13.266;2023-07-29T10:15:17;13.10;;;6.43;;
4424;SDS011;2225;53.568;13.266;2023-07-29T10:17:44;11.27;;;6.63;;
4424;SDS011;2225;53.568;13.266;2023-07-29T10:20:15;12.23;;;6.73;;
4424;SDS011;2225;53.568;13.266;2023-07-29T10:22:43;12.50;;;6.03;;
4424;SDS011;2225;53.568;13.266;2023-07-29T10:25:57;9.90;;;5.80;;
4424;SDS011;2225;53.568;13.266;2023-07-29T10:28:08;10.80;;;5.60;;
4424;SDS011;2225;53.568;13.266;2023-07-29T10:30:38;16.57;;;5.97;;
4424;SDS011;2225;53.568;13.266;2023-07-29T10:33:05;10.53;;;6.60;;
4424;SDS011;2225;53.568;13.266;2023-07-29T10:35:33;10.83;;;5.90;;
4424;SDS011;2225;53.568;13.266;2023-07-29T10:38:01;14.00;;;5.87;;
4424;SDS011;2225;53.568;13.266;2023-07-29T10:40:45;11.50;;;5.73;;
4424;SDS011;2225;53.568;13.266;2023-07-29T10:43:24;9.90;;;5.10;;
4424;SDS011;2225;53.568;13.266;2023-07-29T10:45:54;13.13;;;4.73;;
4424;SDS011;2225;53.568;13.266;2023-07-29T10:48:40;11.80;;;5.20;;
4424;SDS011;2225;53.568;13.266;2023-07-29T10:54:00;10.57;;;6.20;;
4424;SDS011;2225;53.568;13.266;2023-07-29T10:56:37;18.23;;;5.87;;
4424;SDS011;2225;53.568;13.266;2023-07-29T11:01:50;16.40;;;6.57;;
4424;SDS011;2225;53.568;13.266;2023-07-29T11:09:40;9.73;;;5.87;;
4424;SDS011;2225;53.568;13.266;2023-07-29T11:15:21;9.60;;;5.60;;
4424;SDS011;2225;53.568;13.266;2023-07-29T11:20:27;10.20;;;5.60;;
4424;SDS011;2225;53.568;13.266;2023-07-29T11:22:56;11.10;;;6.20;;
4424;SDS011;2225;53.568;13.266;2023-07-29T11:25:26;8.73;;;5.43;;
4424;SDS011;2225;53.568;13.266;2023-07-29T11:27:55;11.23;;;6.37;;
4424;SDS011;2225;53.568;13.266;2023-07-29T11:30:24;9.77;;;5.60;;
4424;SDS011;2225;53.568;13.266;2023-07-29T11:32:56;10.27;;;6.10;;
4424;SDS011;2225;53.568;13.266;2023-07-29T11:35:25;12.60;;;5.77;;
4424;SDS011;2225;53.568;13.266;2023-07-29T11:37:53;11.70;;;5.00;;
4424;SDS011;2225;53.568;13.266;2023-07-29T11:40:23;9.67;;;5.40;;
4424;SDS011;2225;53.568;13.266;2023-07-29T11:42:51;12.03;;;5.07;;
4424;SDS011;2225;53.568;13.266;2023-07-29T11:45:19;10.17;;;5.60;;
4424;SDS011;2225;53.568;13.266;2023-07-29T11:47:57;8.67;;;4.83;;
4424;SDS011;2225;53.568;13.266;2023-07-29T11:50:24;14.53;;;5.53;;
4424;SDS011;2225;53.568;13.266;2023-07-29T11:52:51;11.43;;;6.00;;
4424;SDS011;2225;53.568;13.266;2023-07-29T11:55:19;9.27;;;5.33;;
4424;SDS011;2225;53.568;13.266;2023-07-29T11:57:46;10.20;;;5.50;;
4424;SDS011;2225;53.568;13.266;2023-07-29T12:00:18;9.73;;;4.10;;
4424;SDS011;2225;53.568;13.266;2023-07-29T12:02:45;10.60;;;3.37;;
4424;SDS011;2225;53.568;13.266;2023-07-29T12:05:14;13.73;;;3.53;;
4424;SDS011;2225;53.568;13.266;2023-07-29T12:07:42;6.60;;;2.80;;
4424;SDS011;2225;53.568;13.266;2023-07-29T12:10:09;6.40;;;2.90;;
4424;SDS011;2225;53.568;13.266;2023-07-29T12:12:40;15.10;;;3.40;;
4424;SDS011;2225;53.568;13.266;2023-07-29T12:15:12;6.27;;;2.60;;
4424;SDS011;2225;53.568;13.266;2023-07-29T12:17:40;7.00;;;3.10;;
4424;SDS011;2225;53.568;13.266;2023-07-29T12:20:08;6.27;;;2.63;;
4424;SDS011;2225;53.568;13.266;2023-07-29T12:22:36;6.10;;;2.53;;
4424;SDS011;2225;53.568;13.266;2023-07-29T12:25:04;6.67;;;2.70;;
4424;SDS011;2225;53.568;13.266;2023-07-29T12:27:31;6.50;;;3.10;;
4424;SDS011;2225;53.568;13.266;2023-07-29T12:30:00;7.63;;;3.30;;
4424;SDS011;2225;53.568;13.266;2023-07-29T12:32:29;6.40;;;2.80;;
4424;SDS011;2225;53.568;13.266;2023-07-29T12:34:57;6.90;;;2.80;;
4424;SDS011;2225;53.568;13.266;2023-07-29T12:37:30;9.50;;;3.00;;
4424;SDS011;2225;53.568;13.266;2023-07-29T12:40:01;6.30;;;2.80;;
4424;SDS011;2225;53.568;13.266;2023-07-29T12:42:28;6.57;;;2.73;;
4424;SDS011;2225;53.568;13.266;2023-07-29T12:44:55;6.37;;;2.40;;
4424;SDS011;2225;53.568;13.266;2023-07-29T12:47:22;6.57;;;2.70;;
4424;SDS011;2225;53.568;13.266;2023-07-29T12:49:49;6.97;;;2.90;;
4424;SDS011;2225;53.568;13.266;2023-07-29T12:52:17;6.57;;;2.40;;
4424;SDS011;2225;53.568;13.266;2023-07-29T12:54:44;7.77;;;3.00;;
4424;SDS011;2225;53.568;13.266;2023-07-29T12:57:11;12.13;;;2.70;;
4424;SDS011;2225;53.568;13.266;2023-07-29T12:59:38;9.80;;;3.13;;
4424;SDS011;2225;53.568;13.266;2023-07-29T13:02:05;7.00;;;2.40;;
4424;SDS011;2225;53.568;13.266;2023-07-29T13:04:33;6.07;;;2.40;;
4424;SDS011;2225;53.568;13.266;2023-07-29T13:07:00;6.73;;;3.17;;
4424;SDS011;2225;53.568;13.266;2023-07-29T13:09:27;9.23;;;3.00;;
4424;SDS011;2225;53.568;13.266;2023-07-29T13:11:54;6.47;;;2.60;;
4424;SDS011;2225;53.568;13.266;2023-07-29T13:14:21;5.60;;;2.37;;
4424;SDS011;2225;53.568;13.266;2023-07-29T13:16:48;6.30;;;3.10;;
4424;SDS011;2225;53.568;13.266;2023-07-29T13:19:15;17.67;;;2.87;;
4424;SDS011;2225;53.568;13.266;2023-07-29T13:21:42;6.00;;;2.70;;
4424;SDS011;2225;53.568;13.266;2023-07-29T13:24:09;5.90;;;2.30;;
4424;SDS011;2225;53.568;13.266;2023-07-29T13:26:36;6.63;;;2.83;;
4424;SDS011;2225;53.568;13.266;2023-07-29T13:29:03;5.70;;;2.30;;
4424;SDS011;2225;53.568;13.266;2023-07-29T13:31:34;6.00;;;2.63;;
4424;SDS011;2225;53.568;13.266;2023-07-29T13:34:01;6.00;;;2.43;;
4424;SDS011;2225;53.568;13.266;2023-07-29T13:36:28;6.90;;;2.47;;
4424;SDS011;2225;53.568;13.266;2023-07-29T13:38:55;6.43;;;2.73;;
4424;SDS011;2225;53.568;13.266;2023-07-29T13:41:22;6.93;;;2.60;;
4424;SDS011;2225;53.568;13.266;2023-07-29T13:43:49;6.40;;;3.20;;
4424;SDS011;2225;53.568;13.266;2023-07-29T13:46:16;6.20;;;2.57;;
4424;SDS011;2225;53.568;13.266;2023-07-29T13:48:46;6.53;;;2.70;;
4424;SDS011;2225;53.568;13.266;2023-07-29T13:51:13;5.50;;;2.30;;
4424;SDS011;2225;53.568;13.266;2023-07-29T13:53:40;7.47;;;2.30;;
4424;SDS011;2225;53.568;13.266;2023-07-29T13:56:07;6.23;;;2.70;;
4424;SDS011;2225;53.568;13.266;2023-07-29T13:58:34;6.10;;;2.60;;
4424;SDS011;2225;53.568;13.266;2023-07-29T14:01:01;5.77;;;2.60;;
4424;SDS011;2225;53.568;13.266;2023-07-29T14:03:28;6.13;;;2.63;;
4424;SDS011;2225;53.568;13.266;2023-07-29T14:05:55;7.50;;;2.73;;
4424;SDS011;2225;53.568;13.266;2023-07-29T14:08:22;6.93;;;3.10;;
4424;SDS011;2225;53.568;13.266;2023-07-29T14:10:49;6.93;;;2.87;;
4424;SDS011;2225;53.568;13.266;2023-07-29T14:13:16;6.63;;;2.90;;
4424;SDS011;2225;53.568;13.266;2023-07-29T14:15:43;7.73;;;2.47;;
4424;SDS011;2225;53.568;13.266;2023-07-29T14:18:10;12.97;;;3.03;;
4424;SDS011;2225;53.568;13.266;2023-07-29T14:20:37;8.70;;;2.53;;
4424;SDS011;2225;53.568;13.266;2023-07-29T14:23:04;7.27;;;2.60;;
4424;SDS011;2225;53.568;13.266;2023-07-29T14:25:31;6.03;;;2.53;;
4424;SDS011;2225;53.568;13.266;2023-07-29T14:27:58;7.00;;;3.27;;
4424;SDS011;2225;53.568;13.266;2023-07-29T14:30:25;6.67;;;2.80;;
4424;SDS011;2225;53.568;13.266;2023-07-29T14:32:52;9.37;;;2.73;;
4424;SDS011;2225;53.568;13.266;2023-07-29T14:35:19;6.00;;;2.43;;
4424;SDS011;2225;53.568;13.266;2023-07-29T14:37:46;7.30;;;2.70;;
4424;SDS011;2225;53.568;13.266;2023-07-29T14:40:13;19.60;;;2.40;;
4424;SDS011;2225;53.568;13.266;2023-07-29T14:42:40;7.40;;;2.80;;
4424;SDS011;2225;53.568;13.266;2023-07-29T14:45:07;7.20;;;2.60;;
4424;SDS011;2225;53.568;13.266;2023-07-29T14:47:34;7.07;;;2.80;;
4424;SDS011;2225;53.568;13.266;2023-07-29T14:50:01;7.23;;;3.17;;
4424;SDS011;2225;53.568;13.266;2023-07-29T14:52:28;6.33;;;2.60;;
4424;SDS011;2225;53.568;13.266;2023-07-29T14:54:55;6.07;;;2.40;;
4424;SDS011;2225;53.568;13.266;2023-07-29T14:57:22;6.17;;;2.60;;
4424;SDS011;2225;53.568;13.266;2023-07-29T14:59:49;6.90;;;3.07;;
4424;SDS011;2225;53.568;13.266;2023-07-29T15:02:16;8.00;;;3.00;;
4424;SDS011;2225;53.568;13.266;2023-07-29T15:04:44;6.73;;;2.63;;
4424;SDS011;2225;53.568;13.266;2023-07-29T15:07:11;10.33;;;2.70;;
4424;SDS011;2225;53.568;13.266;2023-07-29T15:09:38;8.47;;;2.77;;
4424;SDS011;2225;53.568;13.266;2023-07-29T15:12:05;7.17;;;2.60;;
4424;SDS011;2225;53.568;13.266;2023-07-29T15:14:33;6.67;;;2.57;;
4424;SDS011;2225;53.568;13.266;2023-07-29T15:17:00;7.60;;;2.80;;
4424;SDS011;2225;53.568;13.266;2023-07-29T15:19:27;5.70;;;2.50;;
4424;SDS011;2225;53.568;13.266;2023-07-29T15:21:54;8.97;;;3.30;;
4424;SDS011;2225;53.568;13.266;2023-07-29T15:24:20;6.47;;;3.17;;
4424;SDS011;2225;53.568;13.266;2023-07-29T15:26:47;7.40;;;3.10;;